Time;durP1;ratioP1;P1;durP2;ratioP2;P2;SDS_P1;SDS_P2;PMS_P1;PMS_P2;Temp;Humidity;BMP_temperature;BMP_pressure;BME280_temperature;BME280_humidity;BME280_pressure;Samples;Min_cycle;Max_cycle;Signal;HPM_P1;HPM_P2
2022/04/07 00:01:33;;;;;;;;;;;;;;;17.11;43.77;100412.78;5000703;28;941;-66
2022/04/07 00:03:58;;;;;;;;;;;;;;;17.04;43.69;100393.88;5000667;28;1016;-63
2022/04/07 00:06:24;;;;;;;;;;;;;;;17.05;43.78;100398.25;5000603;28;839;-63
2022/04/07 00:08:49;;;;;;;;;;;;;;;17.06;43.73;100399.91;5000511;28;1036;-63
2022/04/07 00:11:15;;;;;;;;;;;;;;;17.02;43.99;100382.34;5015553;28;819;-63
2022/04/07 00:13:40;;;;;;;;;;;;;;;17.03;43.69;100384.00;5019333;28;858;-63
2022/04/07 00:16:06;;;;;;;;;;;;;;;17.00;43.54;100384.56;5013374;28;1975;-63
2022/04/07 00:18:32;;;;;;;;;;;;;;;16.97;43.65;100376.91;5019147;28;894;-62
2022/04/07 00:20:57;;;;;;;;;;;;;;;16.92;43.35;100372.25;5019141;28;902;-63
2022/04/07 00:23:23;;;;;;;;;;;;;;;16.97;43.63;100362.34;5001005;28;865;-62
2022/04/07 00:25:48;;;;;;;;;;;;;;;16.95;43.63;100354.38;5014382;28;849;-63
2022/04/07 00:28:14;;;;;;;;;;;;;;;16.98;43.36;100342.81;5016480;28;835;-63
2022/04/07 00:30:40;;;;;;;;;;;;;;;16.90;43.46;100324.19;5019087;28;882;-63
2022/04/07 00:33:05;;;;;;;;;;;;;;;16.87;43.24;100322.84;5018856;28;803;-63
2022/04/07 00:35:31;;;;;;;;;;;;;;;16.90;43.34;100325.03;5014730;28;987;-62
2022/04/07 00:37:56;;;;;;;;;;;;;;;16.89;43.45;100322.59;5019013;28;2270;-63
2022/04/07 00:40:22;;;;;;;;;;;;;;;16.90;43.37;100324.19;5003804;28;942;-63
2022/04/07 00:42:48;;;;;;;;;;;;;;;16.90;43.53;100318.72;5000001;28;780;-63
2022/04/07 00:45:14;;;;;;;;;;;;;;;16.86;43.20;100315.72;4982132;28;947;-62
2022/04/07 00:47:40;;;;;;;;;;;;;;;16.89;43.41;100312.41;4999802;28;818;-63
2022/04/07 00:50:05;;;;;;;;;;;;;;;16.95;43.25;100296.72;4999883;28;805;-63
2022/04/07 00:52:31;;;;;;;;;;;;;;;17.07;43.41;100294.41;4999402;28;854;-63
2022/04/07 00:54:56;;;;;;;;;;;;;;;17.11;43.59;100291.91;4990035;28;851;-63
2022/04/07 00:57:22;;;;;;;;;;;;;;;17.17;43.85;100289.94;4999983;28;1918;-63
2022/04/07 00:59:47;;;;;;;;;;;;;;;17.17;44.04;100287.19;4999870;28;810;-63
2022/04/07 01:02:13;;;;;;;;;;;;;;;17.20;44.02;100294.84;4981902;28;933;-63
2022/04/07 01:04:39;;;;;;;;;;;;;;;17.14;44.10;100293.25;4999950;28;755;-64
2022/04/07 01:07:06;;;;;;;;;;;;;;;17.23;44.26;100288.75;5008434;28;910;-63
2022/04/07 01:09:31;;;;;;;;;;;;;;;17.23;44.20;100275.84;5010165;28;892;-63
2022/04/07 01:11:57;;;;;;;;;;;;;;;17.25;44.56;100279.13;4999208;28;927;-63
2022/04/07 01:14:22;;;;;;;;;;;;;;;17.27;44.53;100265.09;4999536;28;767;-63
2022/04/07 01:16:48;;;;;;;;;;;;;;;17.35;44.35;100269.97;4999371;28;1910;-65
2022/04/07 01:19:13;;;;;;;;;;;;;;;17.34;44.57;100264.75;4999004;28;822;-65
2022/04/07 01:21:39;;;;;;;;;;;;;;;17.37;44.56;100266.91;4999296;28;885;-66
2022/04/07 01:24:08;;;;;;;;;;;;;;;17.37;44.73;100256.75;4999002;28;830;-66
2022/04/07 01:26:34;;;;;;;;;;;;;;;17.37;44.61;100255.94;5006578;28;918;-65
2022/04/07 01:29:00;;;;;;;;;;;;;;;17.36;44.55;100248.78;5017517;28;807;-65
2022/04/07 01:31:26;;;;;;;;;;;;;;;17.39;44.54;100254.53;5013079;28;858;-66
2022/04/07 01:33:52;;;;;;;;;;;;;;;17.38;44.75;100250.13;5017514;28;898;-65
2022/04/07 01:36:17;;;;;;;;;;;;;;;17.41;44.36;100240.50;5000399;28;1902;-65
2022/04/07 01:38:43;;;;;;;;;;;;;;;17.41;44.44;100241.31;5015656;28;1024;-66
2022/04/07 01:41:09;;;;;;;;;;;;;;;17.40;44.40;100238.84;5017718;28;822;-64
2022/04/07 01:43:35;;;;;;;;;;;;;;;17.42;44.67;100247.63;5016470;28;835;-65
2022/04/07 01:46:00;;;;;;;;;;;;;;;17.38;44.44;100236.41;5000312;28;1010;-65
2022/04/07 01:48:25;;;;;;;;;;;;;;;17.32;44.57;100236.72;5017603;28;736;-66
2022/04/07 01:50:51;;;;;;;;;;;;;;;17.39;44.72;100232.53;5000037;28;1277;-66
2022/04/07 01:53:17;;;;;;;;;;;;;;;17.45;44.53;100236.06;5017436;28;866;-66
2022/04/07 01:55:42;;;;;;;;;;;;;;;17.41;44.50;100229.50;4999709;28;817;-67
2022/04/07 01:58:08;;;;;;;;;;;;;;;17.46;44.60;100226.69;4991232;28;1968;-67
2022/04/07 02:00:33;;;;;;;;;;;;;;;17.45;44.59;100225.06;4999911;28;898;-67
2022/04/07 02:02:59;;;;;;;;;;;;;;;17.48;44.52;100223.66;4999191;28;871;-66
2022/04/07 02:05:24;;;;;;;;;;;;;;;17.46;44.92;100237.69;5017180;28;825;-66
2022/04/07 02:07:50;;;;;;;;;;;;;;;17.48;44.73;100224.47;5017241;28;852;-66
2022/04/07 02:10:15;;;;;;;;;;;;;;;17.49;44.95;100222.53;4987105;28;854;-66
2022/04/07 02:12:41;;;;;;;;;;;;;;;17.52;44.64;100220.03;4998542;28;969;-67
2022/04/07 02:15:10;;;;;;;;;;;;;;;17.45;44.67;100217.63;4998274;28;790;-66
2022/04/07 02:17:35;;;;;;;;;;;;;;;17.45;45.03;100228.63;4998304;28;1959;-67
2022/04/07 02:20:03;;;;;;;;;;;;;;;17.41;44.88;100222.06;4997886;28;968;-67
2022/04/07 02:22:28;;;;;;;;;;;;;;;17.47;44.90;100222.00;4996842;28;823;-66
2022/04/07 02:24:54;;;;;;;;;;;;;;;17.42;44.81;100220.16;4990081;28;956;-66
2022/04/07 02:27:20;;;;;;;;;;;;;;;17.45;44.93;100227.81;5016976;28;861;-66
2022/04/07 02:29:45;;;;;;;;;;;;;;;17.45;44.79;100214.88;5017187;28;947;-63
2022/04/07 02:32:13;;;;;;;;;;;;;;;17.40;44.72;100206.72;5016824;28;1142;-63
2022/04/07 02:34:39;;;;;;;;;;;;;;;17.50;44.75;100205.75;5014551;28;827;-64
2022/04/07 02:37:05;;;;;;;;;;;;;;;17.50;44.74;100204.94;4997828;28;1891;-64
2022/04/07 02:39:30;;;;;;;;;;;;;;;17.53;44.54;100220.81;4997712;28;1037;-64
2022/04/07 02:41:56;;;;;;;;;;;;;;;17.45;44.63;100220.38;4998079;28;806;-64
2022/04/07 02:44:21;;;;;;;;;;;;;;;17.48;44.75;100229.16;4997869;28;803;-64
2022/04/07 02:46:47;;;;;;;;;;;;;;;17.47;44.87;100231.06;4997825;28;787;-63
2022/04/07 02:49:12;;;;;;;;;;;;;;;17.47;44.88;100222.81;4999996;28;849;-64
2022/04/07 02:51:38;;;;;;;;;;;;;;;17.53;44.57;100209.81;4997682;28;798;-63
2022/04/07 02:54:03;;;;;;;;;;;;;;;17.53;44.79;100196.09;4997471;28;901;-64
2022/04/07 02:56:29;;;;;;;;;;;;;;;17.64;44.72;100203.09;4997420;28;1899;-65
2022/04/07 02:58:54;;;;;;;;;;;;;;;17.63;44.87;100193.22;4998004;28;818;-64
2022/04/07 03:01:20;;;;;;;;;;;;;;;17.64;44.85;100192.09;4997047;28;862;-65
2022/04/07 03:03:45;;;;;;;;;;;;;;;17.62;45.08;100192.38;4997809;28;916;-65
2022/04/07 03:06:11;;;;;;;;;;;;;;;17.69;45.11;100193.97;4997331;28;983;-65
2022/04/07 03:08:36;;;;;;;;;;;;;;;17.61;45.16;100178.94;4997364;28;747;-65
2022/04/07 03:11:02;;;;;;;;;;;;;;;17.72;45.07;100180.44;4997147;28;980;-65
2022/04/07 03:13:27;;;;;;;;;;;;;;;17.71;44.97;100167.00;4996900;28;935;-67
2022/04/07 03:15:53;;;;;;;;;;;;;;;17.77;45.13;100160.31;4997248;28;1973;-64
2022/04/07 03:18:18;;;;;;;;;;;;;;;17.81;44.90;100160.53;4996239;28;1281;-65
2022/04/07 03:20:44;;;;;;;;;;;;;;;17.73;45.00;100153.78;4997266;28;1502;-64
2022/04/07 03:23:09;;;;;;;;;;;;;;;17.77;45.14;100155.63;4996970;28;853;-63
2022/04/07 03:25:36;;;;;;;;;;;;;;;17.83;45.07;100152.81;4996546;28;985;-63
2022/04/07 03:28:02;;;;;;;;;;;;;;;17.76;45.11;100143.00;5011219;28;842;-64
2022/04/07 03:30:28;;;;;;;;;;;;;;;17.75;45.13;100141.38;5015787;28;1383;-63
2022/04/07 03:32:53;;;;;;;;;;;;;;;17.78;45.48;100140.78;5016074;28;751;-66
2022/04/07 03:35:19;;;;;;;;;;;;;;;17.74;45.30;100138.88;5019613;28;854;-65
2022/04/07 03:37:44;;;;;;;;;;;;;;;17.77;45.32;100133.63;5019641;28;1981;-67
2022/04/07 03:40:10;;;;;;;;;;;;;;;17.70;45.17;100124.94;5009534;28;964;-65
2022/04/07 03:42:36;;;;;;;;;;;;;;;17.62;45.22;100131.09;5020048;28;931;-66
2022/04/07 03:45:01;;;;;;;;;;;;;;;17.65;45.34;100126.94;5020171;28;1460;-66
2022/04/07 03:47:28;;;;;;;;;;;;;;;17.64;45.18;100115.09;5019749;28;798;-66
2022/04/07 03:49:53;;;;;;;;;;;;;;;17.60;45.19;100122.34;5019902;28;781;-66
2022/04/07 03:52:19;;;;;;;;;;;;;;;17.61;44.95;100096.47;5008231;28;913;-66
2022/04/07 03:54:44;;;;;;;;;;;;;;;17.65;44.99;100104.94;5005619;28;1039;-68
2022/04/07 03:57:09;;;;;;;;;;;;;;;17.58;44.95;100091.56;5019873;28;1975;-65
2022/04/07 03:59:38;;;;;;;;;;;;;;;17.60;45.00;100083.84;5019275;28;762;-66
2022/04/07 04:02:06;;;;;;;;;;;;;;;17.62;44.90;100082.41;5018939;28;739;-66
2022/04/07 04:04:32;;;;;;;;;;;;;;;17.58;45.05;100066.81;5011970;28;791;-66
2022/04/07 04:06:57;;;;;;;;;;;;;;;17.60;44.97;100064.63;5000604;28;810;-66
2022/04/07 04:09:23;;;;;;;;;;;;;;;17.58;45.20;100053.06;5003970;28;1393;-67
2022/04/07 04:11:48;;;;;;;;;;;;;;;17.58;45.05;100050.34;5019414;28;817;-66
2022/04/07 04:14:13;;;;;;;;;;;;;;;17.58;44.88;100053.88;5019014;28;893;-66
2022/04/07 04:16:39;;;;;;;;;;;;;;;17.54;44.90;100046.53;5015960;28;1897;-67
2022/04/07 04:19:04;;;;;;;;;;;;;;;17.50;44.97;100040.00;5000333;28;955;-65
2022/04/07 04:21:30;;;;;;;;;;;;;;;17.44;45.17;100036.50;5000643;28;824;-65
2022/04/07 04:23:56;;;;;;;;;;;;;;;17.44;45.03;100042.81;4999880;28;858;-66
2022/04/07 04:26:21;;;;;;;;;;;;;;;17.37;45.01;100036.06;5000463;28;766;-65
2022/04/07 04:28:46;;;;;;;;;;;;;;;17.35;44.87;100030.03;5000551;28;1370;-65
2022/04/07 04:31:12;;;;;;;;;;;;;;;17.33;44.83;100024.03;4999975;28;898;-65
2022/04/07 04:33:37;;;;;;;;;;;;;;;17.30;44.74;100019.94;5001281;28;743;-65
2022/04/07 04:36:03;;;;;;;;;;;;;;;17.30;44.64;100019.94;5008330;28;1914;-65
2022/04/07 04:38:28;;;;;;;;;;;;;;;17.32;44.31;100023.22;4981732;28;1011;-65
2022/04/07 04:40:54;;;;;;;;;;;;;;;17.27;44.24;100015.06;5008245;28;1074;-66
2022/04/07 04:43:19;;;;;;;;;;;;;;;17.24;44.53;100015.66;5004617;28;897;-66
2022/04/07 04:45:45;;;;;;;;;;;;;;;17.24;44.43;100018.41;5008067;28;847;-67
2022/04/07 04:48:10;;;;;;;;;;;;;;;17.27;44.26;100020.56;4993206;28;850;-66
2022/04/07 04:50:36;;;;;;;;;;;;;;;17.22;44.47;100015.13;4999447;28;897;-67
2022/04/07 04:53:01;;;;;;;;;;;;;;;17.22;44.33;100015.13;4981658;28;822;-66
2022/04/07 04:55:27;;;;;;;;;;;;;;;17.24;44.38;100018.41;5003738;28;884;-67
2022/04/07 04:57:52;;;;;;;;;;;;;;;17.20;44.29;100004.44;4981770;28;1975;-66
2022/04/07 05:00:18;;;;;;;;;;;;;;;17.18;44.70;100001.16;4999424;28;753;-67
2022/04/07 05:02:43;;;;;;;;;;;;;;;17.21;44.69;99995.09;4999275;28;823;-66
2022/04/07 05:05:09;;;;;;;;;;;;;;;17.19;44.54;99985.50;4999400;28;799;-66
2022/04/07 05:07:34;;;;;;;;;;;;;;;17.20;44.69;99976.16;4999015;28;842;-66
2022/04/07 05:10:00;;;;;;;;;;;;;;;17.23;44.89;99959.06;5013677;28;882;-65
2022/04/07 05:12:26;;;;;;;;;;;;;;;17.23;44.90;99964.56;5018461;28;806;-65
2022/04/07 05:14:52;;;;;;;;;;;;;;;17.26;44.81;99966.69;5018081;28;1034;-65
2022/04/07 05:17:18;;;;;;;;;;;;;;;17.30;44.83;99967.75;5002223;28;1910;-66
2022/04/07 05:19:44;;;;;;;;;;;;;;;17.29;44.94;99963.34;4999189;28;774;-66
2022/04/07 05:22:10;;;;;;;;;;;;;;;17.34;44.92;99976.22;4998705;28;1026;-66
2022/04/07 05:24:35;;;;;;;;;;;;;;;17.34;44.91;99976.22;4998916;28;870;-66
2022/04/07 05:27:01;;;;;;;;;;;;;;;17.34;45.17;99982.53;4998956;28;791;-66
2022/04/07 05:29:26;;;;;;;;;;;;;;;17.33;45.00;99980.88;4998684;28;1278;-66
2022/04/07 05:31:52;;;;;;;;;;;;;;;17.30;45.00;99986.16;4998955;28;820;-66
2022/04/07 05:34:17;;;;;;;;;;;;;;;17.29;44.95;99985.34;5005829;28;835;-66
2022/04/07 05:36:43;;;;;;;;;;;;;;;17.33;44.91;99991.06;5000061;28;1983;-64
2022/04/07 05:39:08;;;;;;;;;;;;;;;17.30;45.05;99983.44;5011664;28;1163;-65
2022/04/07 05:41:33;;;;;;;;;;;;;;;17.33;45.20;99978.13;4998487;28;1472;-60
2022/04/07 05:43:59;;;;;;;;;;;;;;;17.35;45.02;99999.81;5001147;28;1318;-57
2022/04/07 05:46:24;;;;;;;;;;;;;;;17.39;45.27;100007.19;4998006;28;1195;-60
2022/04/07 05:48:50;;;;;;;;;;;;;;;17.34;45.12;99990.75;4983150;28;1191;-57
2022/04/07 05:51:15;;;;;;;;;;;;;;;17.43;45.28;99996.41;5012502;28;1298;-58
2022/04/07 05:53:41;;;;;;;;;;;;;;;17.33;45.45;99996.56;5005695;28;1282;-56
2022/04/07 05:56:06;;;;;;;;;;;;;;;17.34;45.26;99996.25;4980233;28;1975;-56
2022/04/07 05:58:32;;;;;;;;;;;;;;;17.36;45.29;100013.28;5003541;28;1289;-56
2022/04/07 06:00:57;;;;;;;;;;;;;;;17.27;45.04;100020.56;5015288;28;783;-55
2022/04/07 06:03:22;;;;;;;;;;;;;;;17.29;44.96;100023.81;5007142;28;1193;-56
2022/04/07 06:05:52;;;;;;;;;;;;;;;17.27;44.95;100026.03;4998222;28;1334;-56
2022/04/07 06:08:21;;;;;;;;;;;;;;;17.21;44.98;99999.78;5006880;28;1182;-57
2022/04/07 06:10:47;;;;;;;;;;;;;;;17.20;45.28;100009.13;5007466;28;1108;-57
2022/04/07 06:13:14;;;;;;;;;;;;;;;17.24;44.94;99999.97;4994436;28;1270;-54
2022/04/07 06:15:40;;;;;;;;;;;;;;;17.27;44.99;99999.38;4999046;28;1243;-56
2022/04/07 06:18:05;;;;;;;;;;;;;;;17.27;44.94;99984.84;4994489;28;1906;-56
2022/04/07 06:20:31;;;;;;;;;;;;;;;17.31;44.88;99972.13;4996774;28;1227;-56
2022/04/07 06:22:57;;;;;;;;;;;;;;;17.29;45.07;99963.34;4997153;28;1207;-56
2022/04/07 06:25:22;;;;;;;;;;;;;;;17.31;44.90;99936.41;4997237;28;1224;-55
2022/04/07 06:27:48;;;;;;;;;;;;;;;17.33;45.25;99936.91;5009732;28;1345;-57
2022/04/07 06:30:14;;;;;;;;;;;;;;;17.27;44.95;99914.19;5007160;28;1361;-54
2022/04/07 06:32:39;;;;;;;;;;;;;;;17.31;45.08;99919.13;4998793;28;1039;-56
2022/04/07 06:35:05;;;;;;;;;;;;;;;17.34;45.14;99913.03;5009614;28;1337;-54
2022/04/07 06:37:31;;;;;;;;;;;;;;;17.30;44.94;99915.53;4997237;28;1906;-55
2022/04/07 06:40:02;;;;;;;;;;;;;;;17.37;45.16;99932.44;4997932;28;1107;-56
2022/04/07 06:42:28;;;;;;;;;;;;;;;17.34;45.22;99933.06;5015812;28;1282;-56
2022/04/07 06:44:56;;;;;;;;;;;;;;;17.29;45.15;99924.88;4997369;28;1596;-56
2022/04/07 06:47:22;;;;;;;;;;;;;;;17.38;45.31;99925.84;4996561;28;1464;-56
2022/04/07 06:49:48;;;;;;;;;;;;;;;17.40;45.22;99906.31;4996434;28;1230;-58
2022/04/07 06:52:14;;;;;;;;;;;;;;;17.38;45.33;99916.81;4997523;28;1414;-56
2022/04/07 06:54:39;;;;;;;;;;;;;;;17.39;45.02;99918.41;5012508;28;1026;-54
2022/04/07 06:57:05;;;;;;;;;;;;;;;17.39;45.28;99921.16;4996102;28;1973;-53
2022/04/07 06:59:30;;;;;;;;;;;;;;;17.35;45.24;99931.94;4996207;28;1175;-56
2022/04/07 07:01:56;;;;;;;;;;;;;;;17.36;45.37;99935.50;4996692;28;1356;-59
2022/04/07 07:04:21;;;;;;;;;;;;;;;17.37;45.22;99954.44;5008942;28;1218;-57
2022/04/07 07:06:47;;;;;;;;;;;;;;;17.33;45.34;99953.41;4995104;28;1482;-58
2022/04/07 07:09:12;;;;;;;;;;;;;;;17.28;45.16;99959.81;4996303;28;1260;-56
2022/04/07 07:11:37;;;;;;;;;;;;;;;17.33;45.08;99964.41;4999884;28;1287;-55
2022/04/07 07:14:03;;;;;;;;;;;;;;;17.28;45.41;99961.75;4999774;28;1011;-56
2022/04/07 07:16:28;;;;;;;;;;;;;;;17.29;45.36;99957.84;4987929;28;1971;-55
2022/04/07 07:18:54;;;;;;;;;;;;;;;17.36;45.29;99955.56;4998554;28;1210;-55
2022/04/07 07:21:20;;;;;;;;;;;;;;;17.33;45.19;99953.41;4995047;28;1209;-53
2022/04/07 07:23:45;;;;;;;;;;;;;;;17.36;45.36;99947.34;4997728;28;1170;-55
2022/04/07 07:26:13;;;;;;;;;;;;;;;17.39;45.36;99945.88;4991805;28;1394;-54
2022/04/07 07:28:38;;;;;;;;;;;;;;;17.41;45.28;99922.50;4994174;28;1140;-56
2022/04/07 07:31:04;;;;;;;;;;;;;;;17.41;45.48;99929.94;4990935;28;1344;-56
2022/04/07 07:33:29;;;;;;;;;;;;;;;17.47;45.33;99905.94;5002829;28;1207;-55
2022/04/07 07:35:54;;;;;;;;;;;;;;;17.42;45.17;99899.41;5007047;28;1377;-58
2022/04/07 07:38:21;;;;;;;;;;;;;;;17.38;45.27;99895.63;4999662;28;1914;-59
2022/04/07 07:40:47;;;;;;;;;;;;;;;17.35;45.61;99887.97;4997759;28;1471;-57
2022/04/07 07:43:12;;;;;;;;;;;;;;;17.41;45.32;99878.53;4996930;28;1223;-57
2022/04/07 07:45:38;;;;;;;;;;;;;;;17.36;45.44;99878.63;4994612;28;1278;-57
2022/04/07 07:48:03;;;;;;;;;;;;;;;17.33;45.04;99870.97;4994418;28;1289;-55
2022/04/07 07:50:29;;;;;;;;;;;;;;;17.29;45.32;99869.94;4992941;28;1221;-55
2022/04/07 07:52:54;;;;;;;;;;;;;;;17.30;45.00;99863.31;4993791;28;1338;-53
2022/04/07 07:55:20;;;;;;;;;;;;;;;17.22;44.96;99858.50;4995065;28;1275;-54
2022/04/07 07:57:45;;;;;;;;;;;;;;;17.27;45.24;99855.69;4995460;28;1910;-56
2022/04/07 08:00:12;;;;;;;;;;;;;;;17.24;44.81;99834.31;5013835;28;1147;-55
2022/04/07 08:02:38;;;;;;;;;;;;;;;17.23;45.18;99833.50;4989863;28;1287;-54
2022/04/07 08:05:03;;;;;;;;;;;;;;;17.25;45.29;99822.19;5014775;28;815;-55
2022/04/07 08:07:29;;;;;;;;;;;;;;;17.27;44.86;99820.78;5001353;28;1388;-55
2022/04/07 08:09:56;;;;;;;;;;;;;;;17.29;44.85;99823.22;4996240;28;1266;-54
2022/04/07 08:12:22;;;;;;;;;;;;;;;17.22;45.05;99836.53;4995804;28;1180;-54
2022/04/07 08:14:48;;;;;;;;;;;;;;;17.22;45.10;99828.28;4995850;28;1098;-54
2022/04/07 08:17:14;;;;;;;;;;;;;;;17.23;44.79;99827.19;4996474;28;1906;-55
2022/04/07 08:19:40;;;;;;;;;;;;;;;17.18;44.75;99791.56;4996020;28;1492;-56
2022/04/07 08:22:06;;;;;;;;;;;;;;;17.22;44.91;99776.09;5002673;28;1085;-56
2022/04/07 08:24:31;;;;;;;;;;;;;;;17.16;45.08;99760.84;5001151;28;1680;-56
2022/04/07 08:26:56;;;;;;;;;;;;;;;17.18;44.86;99758.59;5000360;28;1235;-55
2022/04/07 08:29:22;;;;;;;;;;;;;;;17.16;44.94;99758.88;5004845;28;1512;-55
2022/04/07 08:31:51;;;;;;;;;;;;;;;17.15;44.92;99768.25;5002528;28;1222;-57
2022/04/07 08:34:18;;;;;;;;;;;;;;;17.16;44.96;99756.16;5003965;28;1299;-55
2022/04/07 08:36:43;;;;;;;;;;;;;;;17.15;44.96;99757.25;4998786;28;1968;-54
2022/04/07 08:39:08;;;;;;;;;;;;;;;17.16;45.01;99755.34;5003303;28;1441;-54
2022/04/07 08:41:34;;;;;;;;;;;;;;;17.12;44.84;99746.06;5001859;28;1199;-54
2022/04/07 08:44:00;;;;;;;;;;;;;;;17.14;45.03;99741.91;5010362;28;1392;-56
2022/04/07 08:46:26;;;;;;;;;;;;;;;17.13;44.67;99723.00;5001130;28;1436;-55
2022/04/07 08:48:51;;;;;;;;;;;;;;;17.12;44.98;99708.41;5018288;28;918;-57
2022/04/07 08:51:17;;;;;;;;;;;;;;;17.12;44.76;99705.69;4984521;28;1481;-57
2022/04/07 08:53:42;;;;;;;;;;;;;;;17.06;44.86;99709.66;5000177;28;1424;-56
2022/04/07 08:56:07;;;;;;;;;;;;;;;17.12;44.82;99693.88;4995045;28;1902;-55
2022/04/07 08:58:33;;;;;;;;;;;;;;;17.14;44.79;99683.41;5014806;28;878;-55
2022/04/07 09:01:02;;;;;;;;;;;;;;;17.07;44.77;99676.38;5017474;28;731;-55
2022/04/07 09:03:28;;;;;;;;;;;;;;;17.12;44.76;99683.69;5017628;28;1128;-55
2022/04/07 09:05:59;;;;;;;;;;;;;;;17.05;44.68;99678.59;5017281;28;740;-55
2022/04/07 09:08:35;;;;;;;;;;;;;;;17.14;44.88;99684.22;5017684;28;857;-55
2022/04/07 09:11:02;;;;;;;;;;;;;;;17.20;44.56;99672.00;5005704;28;791;-55
2022/04/07 09:13:46;;;;;;;;;;;;;;;17.13;44.60;99666.09;5017174;28;1407;-55
2022/04/07 09:16:13;;;;;;;;;;;;;;;17.12;44.63;99655.44;5018094;28;1910;-55
2022/04/07 09:18:39;;;;;;;;;;;;;;;17.04;44.75;99644.03;5011911;28;1155;-55
2022/04/07 09:21:04;;;;;;;;;;;;;;;17.06;44.84;99652.78;4998888;28;827;-55
2022/04/07 09:23:39;;;;;;;;;;;;;;;17.04;44.73;99643.22;4990453;28;1165;-64
2022/04/07 09:26:05;;;;;;;;;;;;;;;17.05;44.47;99644.84;4998664;28;826;-64
2022/04/07 09:28:31;;;;;;;;;;;;;;;17.07;44.56;99648.91;4998550;28;747;-64
2022/04/07 09:30:57;;;;;;;;;;;;;;;17.04;44.82;99630.31;4998717;28;863;-64
2022/04/07 09:33:23;;;;;;;;;;;;;;;17.10;44.58;99629.06;5008996;28;1204;-64
2022/04/07 09:35:56;;;;;;;;;;;;;;;17.13;44.53;99635.09;5007836;28;890;-64
2022/04/07 09:38:25;;;;;;;;;;;;;;;17.07;44.50;99629.69;4998091;28;1906;-63
2022/04/07 09:40:51;;;;;;;;;;;;;;;17.07;44.42;99615.97;4992068;28;1371;-54
2022/04/07 09:43:16;;;;;;;;;;;;;;;17.07;44.44;99602.22;4995204;28;1446;-56
2022/04/07 09:45:48;;;;;;;;;;;;;;;17.04;44.57;99597.34;5001835;28;1441;-56
2022/04/07 09:48:17;;;;;;;;;;;;;;;17.09;44.58;99599.97;5001604;28;1151;-55
2022/04/07 09:50:43;;;;;;;;;;;;;;;17.03;44.63;99586.66;5005266;28;1287;-54
2022/04/07 09:53:09;;;;;;;;;;;;;;;17.06;44.45;99586.06;4979960;28;1281;-54
2022/04/07 09:55:35;;;;;;;;;;;;;;;17.01;44.64;99578.75;4978282;28;1620;-55
2022/04/07 09:58:01;;;;;;;;;;;;;;;17.03;44.48;99581.97;4996721;28;1906;-54
2022/04/07 10:00:27;;;;;;;;;;;;;;;17.03;44.41;99578.44;4997955;28;1369;-54
2022/04/07 10:02:53;;;;;;;;;;;;;;;16.99;44.43;99559.00;4996493;28;1417;-55
2022/04/07 10:05:18;;;;;;;;;;;;;;;16.99;44.57;99550.75;5006432;28;1282;-55
2022/04/07 10:07:44;;;;;;;;;;;;;;;17.02;44.35;99552.09;5002448;28;1609;-54
2022/04/07 10:10:11;;;;;;;;;;;;;;;16.96;44.45;99529.41;4990548;28;1294;-55
2022/04/07 10:12:36;;;;;;;;;;;;;;;16.95;44.42;99519.53;4992530;28;1457;-55
2022/04/07 10:15:05;;;;;;;;;;;;;;;16.96;44.35;99510.19;4995612;28;1433;-54
2022/04/07 10:17:30;;;;;;;;;;;;;;;16.98;44.37;99496.16;4989468;28;1973;-55
2022/04/07 10:20:00;;;;;;;;;;;;;;;17.05;44.60;99488.28;4999804;28;1476;-54
2022/04/07 10:22:34;;;;;;;;;;;;;;;17.07;44.37;99467.66;4987672;28;1295;-54
2022/04/07 10:25:03;;;;;;;;;;;;;;;17.18;44.47;99462.75;4999950;28;1290;-54
2022/04/07 10:27:33;;;;;;;;;;;;;;;17.14;44.90;99463.66;5003249;28;1143;-54
2022/04/07 10:30:03;;;;;;;;;;;;;;;17.18;45.06;99446.25;4997487;28;1318;-54
2022/04/07 10:32:58;;;;;;;;;;;;;;;17.22;44.97;99441.78;4998898;28;1310;-55
2022/04/07 10:35:27;;;;;;;;;;;;;;;17.27;44.68;99438.09;4983547;28;1117;-54
2022/04/07 10:37:52;;;;;;;;;;;;;;;17.21;45.11;99433.84;4995499;28;1914;-55
2022/04/07 10:40:38;;;;;;;;;;;;;;;17.28;45.02;99453.47;5003201;28;1500;-54
2022/04/07 10:43:03;;;;;;;;;;;;;;;17.27;45.24;99443.59;4989996;28;1948;-54
2022/04/07 10:45:35;;;;;;;;;;;;;;;17.27;45.36;99460.88;4992111;28;1298;-55
2022/04/07 10:48:19;;;;;;;;;;;;;;;17.24;45.29;99471.69;4996326;28;1220;-54
2022/04/07 10:50:49;;;;;;;;;;;;;;;17.21;45.03;99467.63;4999106;28;1273;-56
2022/04/07 10:53:24;;;;;;;;;;;;;;;17.21;44.99;99478.59;4987376;28;1223;-55
2022/04/07 10:56:17;;;;;;;;;;;;;;;17.21;45.12;99491.53;5005010;28;1211;-55
2022/04/07 10:58:46;;;;;;;;;;;;;;;17.27;45.02;99468.31;4991356;28;2266;-55
2022/04/07 11:01:15;;;;;;;;;;;;;;;17.28;44.85;99480.94;4996558;28;1477;-55
2022/04/07 11:03:42;;;;;;;;;;;;;;;17.22;44.93;99477.50;5000455;28;1460;-55
2022/04/07 11:06:10;;;;;;;;;;;;;;;17.26;44.77;99472.16;5003136;28;1299;-55
2022/04/07 11:08:36;;;;;;;;;;;;;;;17.16;45.01;99451.25;4999416;28;1121;-56
2022/04/07 11:11:01;;;;;;;;;;;;;;;17.20;44.96;99459.69;4996092;28;1358;-55
2022/04/07 11:13:43;;;;;;;;;;;;;;;17.17;44.88;99482.28;4999029;28;1613;-55
2022/04/07 11:16:14;;;;;;;;;;;;;;;17.22;44.73;99473.91;4996752;28;1055;-55
2022/04/07 11:18:39;;;;;;;;;;;;;;;17.23;44.81;99437.09;4982510;28;1328;-55
2022/04/07 11:21:09;;;;;;;;;;;;;;;17.25;44.74;99396.38;5003250;28;1310;-55
2022/04/07 11:23:51;;;;;;;;;;;;;;;17.28;45.06;99401.25;4996582;28;1369;-55
2022/04/07 11:26:25;;;;;;;;;;;;;;;17.28;44.89;99379.28;4996815;28;1381;-55
2022/04/07 11:29:07;;;;;;;;;;;;;;;17.35;44.83;99367.81;5002405;28;1206;-55
2022/04/07 11:31:43;;;;;;;;;;;;;;;17.45;45.05;99364.84;4975586;28;1152;-56
2022/04/07 11:34:27;;;;;;;;;;;;;;;17.45;44.93;99395.88;5001068;28;1199;-55
2022/04/07 11:36:52;;;;;;;;;;;;;;;17.44;44.95;99410.72;4991007;28;1965;-56
2022/04/07 11:39:18;;;;;;;;;;;;;;;17.42;45.11;99379.22;4994986;28;1488;-55
2022/04/07 11:41:44;;;;;;;;;;;;;;;17.39;44.88;99360.59;4991176;28;1232;-55
2022/04/07 11:44:10;;;;;;;;;;;;;;;17.31;44.97;99359.41;4997326;28;1324;-56
2022/04/07 11:46:35;;;;;;;;;;;;;;;17.42;44.97;99347.03;4997076;28;1425;-56
2022/04/07 11:49:01;;;;;;;;;;;;;;;17.39;45.19;99333.09;4994421;28;1155;-57
2022/04/07 11:51:26;;;;;;;;;;;;;;;17.39;45.00;99353.16;5004461;28;1155;-57
2022/04/07 11:53:52;;;;;;;;;;;;;;;17.34;45.29;99366.22;4995210;28;1281;-56
2022/04/07 11:56:20;;;;;;;;;;;;;;;17.37;45.25;99341.66;4981730;28;1955;-55
2022/04/07 11:59:11;;;;;;;;;;;;;;;17.44;44.80;99376.94;4999491;28;1392;-54
2022/04/07 12:01:45;;;;;;;;;;;;;;;17.43;44.84;99389.88;4996359;28;1092;-55
2022/04/07 12:04:12;;;;;;;;;;;;;;;17.37;44.89;99376.59;5012663;28;1313;-54
2022/04/07 12:06:40;;;;;;;;;;;;;;;17.34;44.84;99383.50;5003719;28;1373;-55
2022/04/07 12:09:06;;;;;;;;;;;;;;;17.39;44.78;99388.06;4999120;28;1345;-55
2022/04/07 12:11:32;;;;;;;;;;;;;;;17.35;45.02;99389.81;4998736;28;1527;-56
2022/04/07 12:13:58;;;;;;;;;;;;;;;17.28;44.95;99384.78;4996995;28;1365;-56
2022/04/07 12:16:24;;;;;;;;;;;;;;;17.34;45.08;99350.53;5002197;28;1977;-57
2022/04/07 12:18:53;;;;;;;;;;;;;;;17.36;44.95;99352.97;4989084;28;1556;-54
2022/04/07 12:21:19;;;;;;;;;;;;;;;17.40;45.06;99364.97;5003280;28;1088;-55
2022/04/07 12:23:46;;;;;;;;;;;;;;;17.34;44.68;99386.25;4999414;28;1427;-55
2022/04/07 12:26:11;;;;;;;;;;;;;;;17.37;44.75;99387.56;5008292;28;1332;-54
2022/04/07 12:28:40;;;;;;;;;;;;;;;17.34;44.77;99394.50;4996348;28;1457;-56
2022/04/07 12:31:12;;;;;;;;;;;;;;;17.33;44.76;99359.91;4999666;28;1022;-56
2022/04/07 12:33:44;;;;;;;;;;;;;;;17.41;44.92;99347.34;5003027;28;1524;-53
2022/04/07 12:36:10;;;;;;;;;;;;;;;17.45;44.84;99356.59;5000402;28;1179;-54
2022/04/07 12:38:36;;;;;;;;;;;;;;;17.45;44.75;99356.59;5012942;28;1977;-55
2022/04/07 12:41:09;;;;;;;;;;;;;;;17.36;45.16;99340.06;4981728;28;1216;-56
2022/04/07 12:43:44;;;;;;;;;;;;;;;17.37;44.96;99338.91;5009902;28;1393;-54
2022/04/07 12:46:10;;;;;;;;;;;;;;;17.40;44.73;99327.31;4992050;28;1388;-54
2022/04/07 12:48:35;;;;;;;;;;;;;;;17.42;44.84;99333.31;4998100;28;1271;-57
2022/04/07 12:51:21;;;;;;;;;;;;;;;17.36;44.89;99341.97;5014578;28;1310;-56
2022/04/07 12:53:46;;;;;;;;;;;;;;;17.40;44.73;99354.81;5000115;28;1389;-56
2022/04/07 12:56:25;;;;;;;;;;;;;;;17.36;44.75;99350.22;4997671;28;1388;-55